sensor_id;sensor_type;location;lat;lon;timestamp;P1;durP1;ratioP1;P2;durP2;ratioP2
52564;SDS011;38460;53.106;7.004;2023-11-18T00:00:10;29.60;;;15.48;;
52564;SDS011;38460;53.106;7.004;2023-11-18T00:02:37;18.80;;;13.15;;
52564;SDS011;38460;53.106;7.004;2023-11-18T00:05:03;19.73;;;14.00;;
52564;SDS011;38460;53.106;7.004;2023-11-18T00:07:32;26.73;;;15.10;;
52564;SDS011;38460;53.106;7.004;2023-11-18T00:09:58;18.73;;;13.50;;
52564;SDS011;38460;53.106;7.004;2023-11-18T00:12:23;17.33;;;12.60;;
52564;SDS011;38460;53.106;7.004;2023-11-18T00:14:50;14.82;;;12.70;;
52564;SDS011;38460;53.106;7.004;2023-11-18T00:17:15;13.70;;;11.27;;
52564;SDS011;38460;53.106;7.004;2023-11-18T00:19:41;16.38;;;12.65;;
52564;SDS011;38460;53.106;7.004;2023-11-18T00:22:08;17.52;;;12.85;;
52564;SDS011;38460;53.106;7.004;2023-11-18T00:24:33;21.30;;;15.85;;
52564;SDS011;38460;53.106;7.004;2023-11-18T00:27:00;18.77;;;14.57;;
52564;SDS011;38460;53.106;7.004;2023-11-18T00:29:31;22.95;;;17.00;;
52564;SDS011;38460;53.106;7.004;2023-11-18T00:32:03;22.00;;;16.65;;
52564;SDS011;38460;53.106;7.004;2023-11-18T00:34:29;22.35;;;16.65;;
52564;SDS011;38460;53.106;7.004;2023-11-18T00:36:55;22.95;;;18.33;;
52564;SDS011;38460;53.106;7.004;2023-11-18T00:39:24;23.30;;;16.50;;
52564;SDS011;38460;53.106;7.004;2023-11-18T00:41:50;23.95;;;15.73;;
52564;SDS011;38460;53.106;7.004;2023-11-18T00:44:16;47.85;;;17.80;;
52564;SDS011;38460;53.106;7.004;2023-11-18T00:46:43;34.88;;;15.65;;
52564;SDS011;38460;53.106;7.004;2023-11-18T00:49:08;23.60;;;14.95;;
52564;SDS011;38460;53.106;7.004;2023-11-18T00:51:36;20.27;;;14.07;;
52564;SDS011;38460;53.106;7.004;2023-11-18T00:54:02;22.42;;;13.77;;
52564;SDS011;38460;53.106;7.004;2023-11-18T00:56:30;33.00;;;16.30;;
52564;SDS011;38460;53.106;7.004;2023-11-18T00:58:57;21.08;;;14.88;;
52564;SDS011;38460;53.106;7.004;2023-11-18T01:01:22;21.58;;;15.73;;
52564;SDS011;38460;53.106;7.004;2023-11-18T01:03:48;25.40;;;17.70;;
52564;SDS011;38460;53.106;7.004;2023-11-18T01:06:14;22.92;;;16.95;;
52564;SDS011;38460;53.106;7.004;2023-11-18T01:08:43;28.77;;;18.48;;
52564;SDS011;38460;53.106;7.004;2023-11-18T01:11:09;31.40;;;20.63;;
52564;SDS011;38460;53.106;7.004;2023-11-18T01:13:35;29.75;;;19.52;;
52564;SDS011;38460;53.106;7.004;2023-11-18T01:16:01;33.60;;;20.08;;
52564;SDS011;38460;53.106;7.004;2023-11-18T01:18:27;33.80;;;21.58;;
52564;SDS011;38460;53.106;7.004;2023-11-18T01:20:53;32.45;;;19.33;;
52564;SDS011;38460;53.106;7.004;2023-11-18T01:23:19;33.92;;;20.40;;
52564;SDS011;38460;53.106;7.004;2023-11-18T01:25:44;32.83;;;19.08;;
52564;SDS011;38460;53.106;7.004;2023-11-18T01:28:10;35.72;;;22.17;;
52564;SDS011;38460;53.106;7.004;2023-11-18T01:30:36;33.25;;;22.02;;
52564;SDS011;38460;53.106;7.004;2023-11-18T01:33:02;28.50;;;19.00;;
52564;SDS011;38460;53.106;7.004;2023-11-18T01:35:28;35.40;;;20.23;;
52564;SDS011;38460;53.106;7.004;2023-11-18T01:37:54;31.88;;;20.13;;
52564;SDS011;38460;53.106;7.004;2023-11-18T01:40:20;36.17;;;24.10;;
52564;SDS011;38460;53.106;7.004;2023-11-18T01:42:46;37.10;;;23.15;;
52564;SDS011;38460;53.106;7.004;2023-11-18T01:45:12;26.38;;;19.10;;
52564;SDS011;38460;53.106;7.004;2023-11-18T01:47:39;29.00;;;19.35;;
52564;SDS011;38460;53.106;7.004;2023-11-18T01:50:07;34.22;;;19.58;;
52564;SDS011;38460;53.106;7.004;2023-11-18T01:52:34;24.73;;;17.65;;
52564;SDS011;38460;53.106;7.004;2023-11-18T01:55:00;26.17;;;17.00;;
52564;SDS011;38460;53.106;7.004;2023-11-18T01:57:31;30.00;;;17.88;;
52564;SDS011;38460;53.106;7.004;2023-11-18T01:59:58;30.02;;;18.83;;
52564;SDS011;38460;53.106;7.004;2023-11-18T02:02:25;29.15;;;17.48;;
52564;SDS011;38460;53.106;7.004;2023-11-18T02:04:51;26.02;;;16.05;;
52564;SDS011;38460;53.106;7.004;2023-11-18T02:07:17;25.48;;;16.95;;
52564;SDS011;38460;53.106;7.004;2023-11-18T02:09:43;28.02;;;16.85;;
52564;SDS011;38460;53.106;7.004;2023-11-18T02:12:16;24.45;;;17.23;;
52564;SDS011;38460;53.106;7.004;2023-11-18T02:14:48;25.80;;;15.23;;
52564;SDS011;38460;53.106;7.004;2023-11-18T02:17:17;53.45;;;19.48;;
52564;SDS011;38460;53.106;7.004;2023-11-18T02:19:45;29.48;;;15.35;;
52564;SDS011;38460;53.106;7.004;2023-11-18T02:22:11;29.33;;;15.57;;
52564;SDS011;38460;53.106;7.004;2023-11-18T02:24:38;46.22;;;16.42;;
52564;SDS011;38460;53.106;7.004;2023-11-18T02:27:06;32.72;;;14.70;;
52564;SDS011;38460;53.106;7.004;2023-11-18T02:29:35;40.03;;;16.05;;
52564;SDS011;38460;53.106;7.004;2023-11-18T02:32:17;116.40;;;22.38;;
52564;SDS011;38460;53.106;7.004;2023-11-18T02:35:13;104.70;;;20.20;;
52564;SDS011;38460;53.106;7.004;2023-11-18T02:37:51;60.42;;;19.08;;
52564;SDS011;38460;53.106;7.004;2023-11-18T02:40:20;37.05;;;16.58;;
52564;SDS011;38460;53.106;7.004;2023-11-18T02:42:50;88.32;;;19.77;;
52564;SDS011;38460;53.106;7.004;2023-11-18T02:45:18;39.75;;;16.67;;
52564;SDS011;38460;53.106;7.004;2023-11-18T02:47:45;30.48;;;16.73;;
52564;SDS011;38460;53.106;7.004;2023-11-18T02:50:11;30.90;;;16.15;;
52564;SDS011;38460;53.106;7.004;2023-11-18T02:52:38;52.90;;;16.83;;
52564;SDS011;38460;53.106;7.004;2023-11-18T02:55:05;40.78;;;17.58;;
52564;SDS011;38460;53.106;7.004;2023-11-18T02:57:32;35.88;;;17.63;;
52564;SDS011;38460;53.106;7.004;2023-11-18T02:59:58;55.85;;;18.33;;
52564;SDS011;38460;53.106;7.004;2023-11-18T03:02:28;54.28;;;18.02;;
52564;SDS011;38460;53.106;7.004;2023-11-18T03:04:56;82.97;;;19.85;;
52564;SDS011;38460;53.106;7.004;2023-11-18T03:07:22;54.22;;;19.13;;
52564;SDS011;38460;53.106;7.004;2023-11-18T03:09:48;39.90;;;16.45;;
52564;SDS011;38460;53.106;7.004;2023-11-18T03:12:13;142.07;;;24.27;;
52564;SDS011;38460;53.106;7.004;2023-11-18T03:14:39;91.13;;;20.05;;
52564;SDS011;38460;53.106;7.004;2023-11-18T03:17:05;49.00;;;17.13;;
52564;SDS011;38460;53.106;7.004;2023-11-18T03:19:32;79.80;;;20.27;;
52564;SDS011;38460;53.106;7.004;2023-11-18T03:22:00;76.32;;;19.25;;
52564;SDS011;38460;53.106;7.004;2023-11-18T03:24:27;73.60;;;19.70;;
52564;SDS011;38460;53.106;7.004;2023-11-18T03:26:56;81.70;;;23.25;;
52564;SDS011;38460;53.106;7.004;2023-11-18T03:29:22;56.42;;;17.20;;
52564;SDS011;38460;53.106;7.004;2023-11-18T03:31:48;88.65;;;21.85;;
52564;SDS011;38460;53.106;7.004;2023-11-18T03:34:18;43.45;;;17.73;;
52564;SDS011;38460;53.106;7.004;2023-11-18T03:36:47;69.60;;;20.20;;
52564;SDS011;38460;53.106;7.004;2023-11-18T03:39:13;46.30;;;19.40;;
52564;SDS011;38460;53.106;7.004;2023-11-18T03:41:39;43.85;;;18.50;;
52564;SDS011;38460;53.106;7.004;2023-11-18T03:44:09;115.57;;;24.17;;
52564;SDS011;38460;53.106;7.004;2023-11-18T03:46:37;129.32;;;25.40;;
52564;SDS011;38460;53.106;7.004;2023-11-18T03:49:02;46.17;;;19.67;;
52564;SDS011;38460;53.106;7.004;2023-11-18T03:51:28;85.20;;;22.45;;
52564;SDS011;38460;53.106;7.004;2023-11-18T03:53:54;44.75;;;19.02;;
52564;SDS011;38460;53.106;7.004;2023-11-18T03:56:20;70.70;;;20.58;;
52564;SDS011;38460;53.106;7.004;2023-11-18T03:58:46;153.90;;;29.38;;
52564;SDS011;38460;53.106;7.004;2023-11-18T04:01:22;141.20;;;26.70;;
52564;SDS011;38460;53.106;7.004;2023-11-18T04:03:53;161.25;;;29.92;;
52564;SDS011;38460;53.106;7.004;2023-11-18T04:06:20;81.03;;;22.88;;
52564;SDS011;38460;53.106;7.004;2023-11-18T04:08:47;96.00;;;23.75;;
52564;SDS011;38460;53.106;7.004;2023-11-18T04:11:13;82.93;;;23.15;;
52564;SDS011;38460;53.106;7.004;2023-11-18T04:13:42;54.83;;;21.58;;
52564;SDS011;38460;53.106;7.004;2023-11-18T04:16:12;130.93;;;27.20;;
52564;SDS011;38460;53.106;7.004;2023-11-18T04:18:40;105.57;;;28.13;;
52564;SDS011;38460;53.106;7.004;2023-11-18T04:21:07;95.38;;;26.55;;
52564;SDS011;38460;53.106;7.004;2023-11-18T04:23:37;113.63;;;27.38;;
52564;SDS011;38460;53.106;7.004;2023-11-18T04:26:06;117.05;;;28.38;;
52564;SDS011;38460;53.106;7.004;2023-11-18T04:28:32;71.13;;;23.83;;
52564;SDS011;38460;53.106;7.004;2023-11-18T04:30:59;87.05;;;27.05;;
52564;SDS011;38460;53.106;7.004;2023-11-18T04:33:25;78.63;;;26.17;;
52564;SDS011;38460;53.106;7.004;2023-11-18T04:35:51;121.57;;;27.08;;
52564;SDS011;38460;53.106;7.004;2023-11-18T04:38:17;110.38;;;27.63;;
52564;SDS011;38460;53.106;7.004;2023-11-18T04:40:44;81.57;;;25.30;;
52564;SDS011;38460;53.106;7.004;2023-11-18T04:43:13;50.78;;;22.75;;
52564;SDS011;38460;53.106;7.004;2023-11-18T04:45:40;65.68;;;22.75;;
52564;SDS011;38460;53.106;7.004;2023-11-18T04:48:07;100.65;;;26.27;;
52564;SDS011;38460;53.106;7.004;2023-11-18T04:50:33;76.50;;;23.02;;
52564;SDS011;38460;53.106;7.004;2023-11-18T04:52:59;78.60;;;23.90;;
52564;SDS011;38460;53.106;7.004;2023-11-18T04:55:25;101.70;;;25.92;;
52564;SDS011;38460;53.106;7.004;2023-11-18T04:57:51;124.25;;;26.13;;
52564;SDS011;38460;53.106;7.004;2023-11-18T05:00:17;81.90;;;24.00;;
52564;SDS011;38460;53.106;7.004;2023-11-18T05:02:45;126.80;;;29.52;;
52564;SDS011;38460;53.106;7.004;2023-11-18T05:05:16;56.38;;;24.02;;
52564;SDS011;38460;53.106;7.004;2023-11-18T05:07:43;53.50;;;23.42;;
52564;SDS011;38460;53.106;7.004;2023-11-18T05:10:09;123.43;;;30.67;;
52564;SDS011;38460;53.106;7.004;2023-11-18T05:12:35;58.10;;;24.23;;
52564;SDS011;38460;53.106;7.004;2023-11-18T05:15:02;130.40;;;32.13;;
52564;SDS011;38460;53.106;7.004;2023-11-18T05:17:29;139.07;;;34.65;;
52564;SDS011;38460;53.106;7.004;2023-11-18T05:19:55;97.18;;;31.35;;
52564;SDS011;38460;53.106;7.004;2023-11-18T05:22:21;68.28;;;27.60;;
52564;SDS011;38460;53.106;7.004;2023-11-18T05:24:47;100.45;;;32.05;;
52564;SDS011;38460;53.106;7.004;2023-11-18T05:27:15;74.60;;;27.92;;
52564;SDS011;38460;53.106;7.004;2023-11-18T05:29:42;158.63;;;37.58;;
52564;SDS011;38460;53.106;7.004;2023-11-18T05:32:10;170.38;;;41.22;;
52564;SDS011;38460;53.106;7.004;2023-11-18T05:34:36;115.55;;;33.78;;
52564;SDS011;38460;53.106;7.004;2023-11-18T05:37:01;70.45;;;29.58;;
52564;SDS011;38460;53.106;7.004;2023-11-18T05:39:27;114.55;;;35.55;;
52564;SDS011;38460;53.106;7.004;2023-11-18T05:41:59;112.88;;;34.83;;
52564;SDS011;38460;53.106;7.004;2023-11-18T05:44:25;139.35;;;39.35;;
52564;SDS011;38460;53.106;7.004;2023-11-18T05:47:02;124.68;;;38.58;;
52564;SDS011;38460;53.106;7.004;2023-11-18T05:49:28;111.32;;;38.92;;
52564;SDS011;38460;53.106;7.004;2023-11-18T05:51:54;125.68;;;37.55;;
52564;SDS011;38460;53.106;7.004;2023-11-18T05:54:21;100.43;;;36.80;;
52564;SDS011;38460;53.106;7.004;2023-11-18T05:56:47;102.05;;;34.72;;
52564;SDS011;38460;53.106;7.004;2023-11-18T05:59:12;126.47;;;40.95;;
52564;SDS011;38460;53.106;7.004;2023-11-18T06:01:39;108.55;;;35.83;;
52564;SDS011;38460;53.106;7.004;2023-11-18T06:04:05;113.60;;;38.72;;
52564;SDS011;38460;53.106;7.004;2023-11-18T06:06:33;114.80;;;37.92;;
52564;SDS011;38460;53.106;7.004;2023-11-18T06:08:59;134.23;;;41.28;;
52564;SDS011;38460;53.106;7.004;2023-11-18T06:11:30;103.72;;;38.30;;
52564;SDS011;38460;53.106;7.004;2023-11-18T06:14:00;116.40;;;40.47;;
52564;SDS011;38460;53.106;7.004;2023-11-18T06:16:26;126.75;;;45.75;;
52564;SDS011;38460;53.106;7.004;2023-11-18T06:18:56;95.43;;;40.22;;
52564;SDS011;38460;53.106;7.004;2023-11-18T06:21:24;95.03;;;38.47;;
52564;SDS011;38460;53.106;7.004;2023-11-18T06:23:53;92.18;;;39.78;;
52564;SDS011;38460;53.106;7.004;2023-11-18T06:26:20;112.47;;;41.47;;
52564;SDS011;38460;53.106;7.004;2023-11-18T06:28:47;95.35;;;37.85;;
52564;SDS011;38460;53.106;7.004;2023-11-18T06:31:16;115.68;;;40.10;;
52564;SDS011;38460;53.106;7.004;2023-11-18T06:33:43;103.85;;;41.40;;
52564;SDS011;38460;53.106;7.004;2023-11-18T06:36:16;87.75;;;36.97;;
52564;SDS011;38460;53.106;7.004;2023-11-18T06:38:46;93.10;;;39.08;;
52564;SDS011;38460;53.106;7.004;2023-11-18T06:41:15;82.47;;;35.60;;
52564;SDS011;38460;53.106;7.004;2023-11-18T06:43:45;76.50;;;37.15;;
52564;SDS011;38460;53.106;7.004;2023-11-18T06:46:20;85.25;;;38.05;;
52564;SDS011;38460;53.106;7.004;2023-11-18T06:48:50;75.15;;;36.67;;
52564;SDS011;38460;53.106;7.004;2023-11-18T06:51:23;91.35;;;38.50;;
52564;SDS011;38460;53.106;7.004;2023-11-18T06:53:50;85.43;;;36.90;;
52564;SDS011;38460;53.106;7.004;2023-11-18T06:56:16;84.75;;;37.90;;
52564;SDS011;38460;53.106;7.004;2023-11-18T06:58:43;83.00;;;37.50;;
52564;SDS011;38460;53.106;7.004;2023-11-18T07:01:09;97.47;;;39.90;;
52564;SDS011;38460;53.106;7.004;2023-11-18T07:03:41;89.45;;;37.45;;
52564;SDS011;38460;53.106;7.004;2023-11-18T07:06:07;87.55;;;36.50;;
52564;SDS011;38460;53.106;7.004;2023-11-18T07:08:35;88.90;;;39.10;;
52564;SDS011;38460;53.106;7.004;2023-11-18T07:11:04;90.20;;;36.50;;
52564;SDS011;38460;53.106;7.004;2023-11-18T07:13:31;79.65;;;34.10;;
52564;SDS011;38460;53.106;7.004;2023-11-18T07:15:59;78.90;;;35.83;;
52564;SDS011;38460;53.106;7.004;2023-11-18T07:18:29;77.03;;;36.08;;
52564;SDS011;38460;53.106;7.004;2023-11-18T07:21:00;81.15;;;34.30;;
52564;SDS011;38460;53.106;7.004;2023-11-18T07:23:29;80.20;;;35.85;;
52564;SDS011;38460;53.106;7.004;2023-11-18T07:25:55;92.60;;;37.33;;
52564;SDS011;38460;53.106;7.004;2023-11-18T07:28:21;83.53;;;36.70;;
52564;SDS011;38460;53.106;7.004;2023-11-18T07:30:47;114.57;;;38.15;;
52564;SDS011;38460;53.106;7.004;2023-11-18T07:33:14;123.28;;;42.90;;
52564;SDS011;38460;53.106;7.004;2023-11-18T07:35:41;206.60;;;63.05;;
52564;SDS011;38460;53.106;7.004;2023-11-18T07:38:07;137.48;;;43.03;;
52564;SDS011;38460;53.106;7.004;2023-11-18T07:40:33;116.85;;;41.70;;
52564;SDS011;38460;53.106;7.004;2023-11-18T07:42:59;219.70;;;58.28;;
52564;SDS011;38460;53.106;7.004;2023-11-18T07:45:28;121.65;;;42.70;;
52564;SDS011;38460;53.106;7.004;2023-11-18T07:48:03;142.38;;;44.25;;
52564;SDS011;38460;53.106;7.004;2023-11-18T07:50:38;121.28;;;40.30;;
52564;SDS011;38460;53.106;7.004;2023-11-18T07:53:09;136.55;;;44.95;;
52564;SDS011;38460;53.106;7.004;2023-11-18T07:55:36;128.52;;;41.95;;
52564;SDS011;38460;53.106;7.004;2023-11-18T07:58:13;112.05;;;41.80;;
52564;SDS011;38460;53.106;7.004;2023-11-18T08:00:42;152.50;;;47.13;;
52564;SDS011;38460;53.106;7.004;2023-11-18T08:03:10;109.22;;;41.42;;
52564;SDS011;38460;53.106;7.004;2023-11-18T08:05:46;129.43;;;43.40;;
52564;SDS011;38460;53.106;7.004;2023-11-18T08:08:14;141.40;;;44.03;;
52564;SDS011;38460;53.106;7.004;2023-11-18T08:10:43;114.93;;;41.40;;
52564;SDS011;38460;53.106;7.004;2023-11-18T08:13:10;127.80;;;42.90;;
52564;SDS011;38460;53.106;7.004;2023-11-18T08:15:39;125.20;;;43.60;;
52564;SDS011;38460;53.106;7.004;2023-11-18T08:18:06;120.00;;;43.90;;
52564;SDS011;38460;53.106;7.004;2023-11-18T08:20:33;119.53;;;44.65;;
52564;SDS011;38460;53.106;7.004;2023-11-18T08:22:59;131.45;;;46.95;;
52564;SDS011;38460;53.106;7.004;2023-11-18T08:25:24;130.20;;;45.80;;
52564;SDS011;38460;53.106;7.004;2023-11-18T08:27:51;119.80;;;44.47;;
52564;SDS011;38460;53.106;7.004;2023-11-18T08:30:17;113.00;;;44.53;;
52564;SDS011;38460;53.106;7.004;2023-11-18T08:32:44;120.10;;;43.67;;
52564;SDS011;38460;53.106;7.004;2023-11-18T08:35:11;111.88;;;42.97;;
52564;SDS011;38460;53.106;7.004;2023-11-18T08:37:43;117.78;;;46.30;;
52564;SDS011;38460;53.106;7.004;2023-11-18T08:40:13;109.50;;;42.38;;
52564;SDS011;38460;53.106;7.004;2023-11-18T08:42:46;107.40;;;42.22;;
52564;SDS011;38460;53.106;7.004;2023-11-18T08:45:25;101.05;;;43.72;;
52564;SDS011;38460;53.106;7.004;2023-11-18T08:47:54;105.93;;;42.67;;
52564;SDS011;38460;53.106;7.004;2023-11-18T08:50:21;112.65;;;47.03;;
52564;SDS011;38460;53.106;7.004;2023-11-18T08:52:49;88.13;;;39.40;;
52564;SDS011;38460;53.106;7.004;2023-11-18T08:55:22;117.07;;;44.13;;
52564;SDS011;38460;53.106;7.004;2023-11-18T08:58:05;98.80;;;42.22;;
52564;SDS011;38460;53.106;7.004;2023-11-18T09:00:41;106.25;;;40.35;;
52564;SDS011;38460;53.106;7.004;2023-11-18T09:03:15;103.88;;;40.33;;
52564;SDS011;38460;53.106;7.004;2023-11-18T09:05:59;103.45;;;41.15;;
52564;SDS011;38460;53.106;7.004;2023-11-18T09:08:42;91.13;;;40.55;;
52564;SDS011;38460;53.106;7.004;2023-11-18T09:11:09;110.28;;;44.83;;
52564;SDS011;38460;53.106;7.004;2023-11-18T09:13:40;103.13;;;42.53;;
52564;SDS011;38460;53.106;7.004;2023-11-18T09:16:19;104.28;;;43.08;;
52564;SDS011;38460;53.106;7.004;2023-11-18T09:18:54;103.35;;;43.50;;
52564;SDS011;38460;53.106;7.004;2023-11-18T09:21:21;104.07;;;44.38;;
52564;SDS011;38460;53.106;7.004;2023-11-18T09:23:54;92.55;;;40.05;;
52564;SDS011;38460;53.106;7.004;2023-11-18T09:26:21;97.50;;;41.42;;
52564;SDS011;38460;53.106;7.004;2023-11-18T09:28:47;97.05;;;38.97;;
52564;SDS011;38460;53.106;7.004;2023-11-18T09:31:15;84.75;;;36.85;;
52564;SDS011;38460;53.106;7.004;2023-11-18T09:33:42;97.00;;;39.60;;
52564;SDS011;38460;53.106;7.004;2023-11-18T09:36:17;86.47;;;39.60;;
52564;SDS011;38460;53.106;7.004;2023-11-18T09:38:43;102.03;;;43.70;;
52564;SDS011;38460;53.106;7.004;2023-11-18T09:41:11;89.88;;;40.17;;
52564;SDS011;38460;53.106;7.004;2023-11-18T09:43:38;105.28;;;44.42;;
52564;SDS011;38460;53.106;7.004;2023-11-18T09:46:12;86.22;;;39.47;;
52564;SDS011;38460;53.106;7.004;2023-11-18T09:48:43;98.97;;;42.95;;
52564;SDS011;38460;53.106;7.004;2023-11-18T09:51:12;94.53;;;39.50;;
52564;SDS011;38460;53.106;7.004;2023-11-18T09:53:42;110.07;;;43.58;;
52564;SDS011;38460;53.106;7.004;2023-11-18T09:56:13;87.25;;;41.03;;
52564;SDS011;38460;53.106;7.004;2023-11-18T09:59:11;97.78;;;42.20;;
52564;SDS011;38460;53.106;7.004;2023-11-18T10:01:44;100.85;;;42.47;;
52564;SDS011;38460;53.106;7.004;2023-11-18T10:04:21;93.20;;;40.90;;
52564;SDS011;38460;53.106;7.004;2023-11-18T10:06:53;95.93;;;42.05;;
52564;SDS011;38460;53.106;7.004;2023-11-18T10:09:19;100.13;;;41.80;;
52564;SDS011;38460;53.106;7.004;2023-11-18T10:11:53;92.35;;;39.85;;
52564;SDS011;38460;53.106;7.004;2023-11-18T10:14:28;95.57;;;40.55;;
52564;SDS011;38460;53.106;7.004;2023-11-18T10:16:54;91.95;;;38.78;;
52564;SDS011;38460;53.106;7.004;2023-11-18T10:19:20;98.07;;;41.78;;
52564;SDS011;38460;53.106;7.004;2023-11-18T10:21:49;86.97;;;41.17;;
52564;SDS011;38460;53.106;7.004;2023-11-18T10:24:15;87.40;;;39.05;;
52564;SDS011;38460;53.106;7.004;2023-11-18T10:26:44;87.97;;;41.00;;
52564;SDS011;38460;53.106;7.004;2023-11-18T10:29:12;83.22;;;38.72;;
52564;SDS011;38460;53.106;7.004;2023-11-18T10:31:40;82.03;;;38.63;;
52564;SDS011;38460;53.106;7.004;2023-11-18T10:34:11;78.10;;;37.22;;
52564;SDS011;38460;53.106;7.004;2023-11-18T10:36:40;70.10;;;36.92;;
52564;SDS011;38460;53.106;7.004;2023-11-18T10:39:13;75.63;;;38.60;;
52564;SDS011;38460;53.106;7.004;2023-11-18T10:41:42;75.43;;;35.58;;
52564;SDS011;38460;53.106;7.004;2023-11-18T10:44:08;71.20;;;33.95;;
52564;SDS011;38460;53.106;7.004;2023-11-18T10:49:06;61.90;;;33.55;;
52564;SDS011;38460;53.106;7.004;2023-11-18T10:51:35;59.35;;;32.05;;
52564;SDS011;38460;53.106;7.004;2023-11-18T10:54:04;60.42;;;31.30;;
52564;SDS011;38460;53.106;7.004;2023-11-18T10:56:30;60.47;;;30.60;;
52564;SDS011;38460;53.106;7.004;2023-11-18T10:58:58;53.88;;;29.25;;
52564;SDS011;38460;53.106;7.004;2023-11-18T11:01:31;54.15;;;28.83;;
52564;SDS011;38460;53.106;7.004;2023-11-18T11:04:07;58.33;;;30.33;;
52564;SDS011;38460;53.106;7.004;2023-11-18T11:06:44;47.65;;;27.17;;
52564;SDS011;38460;53.106;7.004;2023-11-18T11:09:25;45.75;;;27.30;;
52564;SDS011;38460;53.106;7.004;2023-11-18T11:12:00;49.83;;;26.67;;
52564;SDS011;38460;53.106;7.004;2023-11-18T11:14:42;42.88;;;25.77;;
52564;SDS011;38460;53.106;7.004;2023-11-18T11:17:19;46.67;;;26.30;;
52564;SDS011;38460;53.106;7.004;2023-11-18T11:20:04;49.78;;;27.75;;
52564;SDS011;38460;53.106;7.004;2023-11-18T11:28:20;45.40;;;25.45;;
52564;SDS011;38460;53.106;7.004;2023-11-18T11:30:53;45.47;;;25.65;;
52564;SDS011;38460;53.106;7.004;2023-11-18T11:33:33;46.22;;;24.77;;
52564;SDS011;38460;53.106;7.004;2023-11-18T11:36:09;48.00;;;26.30;;
52564;SDS011;38460;53.106;7.004;2023-11-18T11:38:38;40.00;;;23.88;;
52564;SDS011;38460;53.106;7.004;2023-11-18T11:41:04;46.15;;;25.45;;
52564;SDS011;38460;53.106;7.004;2023-11-18T11:43:34;43.30;;;23.83;;
52564;SDS011;38460;53.106;7.004;2023-11-18T11:46:02;42.97;;;24.05;;
52564;SDS011;38460;53.106;7.004;2023-11-18T11:48:35;38.10;;;23.02;;
52564;SDS011;38460;53.106;7.004;2023-11-18T11:51:09;45.13;;;24.13;;
52564;SDS011;38460;53.106;7.004;2023-11-18T11:53:42;42.40;;;24.50;;
52564;SDS011;38460;53.106;7.004;2023-11-18T11:56:12;41.83;;;24.52;;
52564;SDS011;38460;53.106;7.004;2023-11-18T11:58:49;46.33;;;22.42;;
52564;SDS011;38460;53.106;7.004;2023-11-18T12:01:24;42.50;;;24.40;;
52564;SDS011;38460;53.106;7.004;2023-11-18T12:03:57;38.22;;;22.23;;
52564;SDS011;38460;53.106;7.004;2023-11-18T12:06:26;40.28;;;22.73;;
52564;SDS011;38460;53.106;7.004;2023-11-18T12:08:53;34.20;;;20.52;;
52564;SDS011;38460;53.106;7.004;2023-11-18T12:11:20;39.28;;;21.40;;
52564;SDS011;38460;53.106;7.004;2023-11-18T12:14:06;46.72;;;21.60;;
52564;SDS011;38460;53.106;7.004;2023-11-18T12:19:46;36.20;;;21.10;;
52564;SDS011;38460;53.106;7.004;2023-11-18T12:22:19;37.90;;;22.55;;
52564;SDS011;38460;53.106;7.004;2023-11-18T12:32:59;34.92;;;21.05;;
52564;SDS011;38460;53.106;7.004;2023-11-18T12:44:14;38.97;;;20.02;;
52564;SDS011;38460;53.106;7.004;2023-11-18T12:49:22;35.00;;;19.33;;
52564;SDS011;38460;53.106;7.004;2023-11-18T12:51:53;37.03;;;19.77;;
52564;SDS011;38460;53.106;7.004;2023-11-18T12:54:21;33.03;;;20.75;;
52564;SDS011;38460;53.106;7.004;2023-11-18T12:56:54;35.63;;;20.50;;
52564;SDS011;38460;53.106;7.004;2023-11-18T12:59:20;33.55;;;19.65;;
52564;SDS011;38460;53.106;7.004;2023-11-18T13:01:46;32.70;;;19.13;;
52564;SDS011;38460;53.106;7.004;2023-11-18T13:04:32;33.58;;;20.08;;
52564;SDS011;38460;53.106;7.004;2023-11-18T13:07:05;32.75;;;19.70;;
52564;SDS011;38460;53.106;7.004;2023-11-18T13:09:33;33.38;;;18.65;;
52564;SDS011;38460;53.106;7.004;2023-11-18T13:12:02;34.67;;;19.40;;
52564;SDS011;38460;53.106;7.004;2023-11-18T13:14:34;35.67;;;18.73;;
52564;SDS011;38460;53.106;7.004;2023-11-18T13:17:04;32.53;;;18.17;;
52564;SDS011;38460;53.106;7.004;2023-11-18T13:19:33;31.55;;;19.02;;
52564;SDS011;38460;53.106;7.004;2023-11-18T13:22:00;33.45;;;18.38;;
52564;SDS011;38460;53.106;7.004;2023-11-18T13:24:26;33.85;;;19.05;;
52564;SDS011;38460;53.106;7.004;2023-11-18T13:26:56;29.50;;;16.75;;
52564;SDS011;38460;53.106;7.004;2023-11-18T13:29:22;30.52;;;18.55;;
52564;SDS011;38460;53.106;7.004;2023-11-18T13:31:52;31.05;;;18.08;;
52564;SDS011;38460;53.106;7.004;2023-11-18T13:34:19;35.40;;;19.80;;
52564;SDS011;38460;53.106;7.004;2023-11-18T13:36:48;30.42;;;18.27;;
52564;SDS011;38460;53.106;7.004;2023-11-18T13:39:18;32.60;;;18.67;;
52564;SDS011;38460;53.106;7.004;2023-11-18T13:41:48;32.70;;;19.13;;
52564;SDS011;38460;53.106;7.004;2023-11-18T13:47:06;32.85;;;17.85;;
52564;SDS011;38460;53.106;7.004;2023-11-18T13:49:36;30.38;;;17.35;;
52564;SDS011;38460;53.106;7.004;2023-11-18T13:52:05;36.17;;;18.15;;
52564;SDS011;38460;53.106;7.004;2023-11-18T13:54:39;35.97;;;19.38;;
52564;SDS011;38460;53.106;7.004;2023-11-18T13:57:07;31.92;;;18.63;;
52564;SDS011;38460;53.106;7.004;2023-11-18T13:59:34;34.97;;;19.55;;
52564;SDS011;38460;53.106;7.004;2023-11-18T14:02:00;33.83;;;18.83;;
52564;SDS011;38460;53.106;7.004;2023-11-18T14:04:29;35.20;;;18.20;;
52564;SDS011;38460;53.106;7.004;2023-11-18T14:06:59;34.92;;;19.42;;
52564;SDS011;38460;53.106;7.004;2023-11-18T14:09:27;30.48;;;18.27;;
52564;SDS011;38460;53.106;7.004;2023-11-18T14:11:55;34.70;;;19.17;;
52564;SDS011;38460;53.106;7.004;2023-11-18T14:14:24;31.67;;;18.80;;
52564;SDS011;38460;53.106;7.004;2023-11-18T14:16:50;33.08;;;17.88;;
52564;SDS011;38460;53.106;7.004;2023-11-18T14:19:25;33.10;;;19.05;;
52564;SDS011;38460;53.106;7.004;2023-11-18T14:21:53;29.42;;;18.17;;
52564;SDS011;38460;53.106;7.004;2023-11-18T14:24:19;32.03;;;17.80;;
52564;SDS011;38460;53.106;7.004;2023-11-18T14:26:48;29.40;;;17.63;;
52564;SDS011;38460;53.106;7.004;2023-11-18T14:29:15;31.83;;;17.63;;
52564;SDS011;38460;53.106;7.004;2023-11-18T14:31:41;28.00;;;16.73;;
52564;SDS011;38460;53.106;7.004;2023-11-18T14:34:07;26.45;;;17.63;;
52564;SDS011;38460;53.106;7.004;2023-11-18T14:36:36;32.88;;;17.58;;
52564;SDS011;38460;53.106;7.004;2023-11-18T14:39:02;30.02;;;17.85;;
52564;SDS011;38460;53.106;7.004;2023-11-18T14:41:28;29.52;;;17.10;;
52564;SDS011;38460;53.106;7.004;2023-11-18T14:43:56;26.60;;;16.95;;
52564;SDS011;38460;53.106;7.004;2023-11-18T14:46:23;29.17;;;16.05;;
52564;SDS011;38460;53.106;7.004;2023-11-18T14:48:49;26.67;;;15.70;;
52564;SDS011;38460;53.106;7.004;2023-11-18T14:51:16;24.80;;;14.65;;
52564;SDS011;38460;53.106;7.004;2023-11-18T14:53:42;27.35;;;14.73;;
52564;SDS011;38460;53.106;7.004;2023-11-18T14:56:08;25.73;;;16.25;;
52564;SDS011;38460;53.106;7.004;2023-11-18T14:58:35;25.98;;;15.73;;
52564;SDS011;38460;53.106;7.004;2023-11-18T15:01:01;26.10;;;13.85;;